サンパウロ/グアルーリョス の空港の天気 - METARとTAF

グアルーリョス国際空港 (サンパウロ) ( SBGR / GRU ) - ブラジル サンパウロ州サンパウロ市
飛行場実況気象(Metar)
観測時間01/23 03:00 BRST (01/23 05:00 UTC)
風向・風速東 1m/s
視程10km以上
天気現象
全天の4割程度の雲 雲底高度 240m
全天の8割程度の雲 雲底高度 3050m
気温21℃
湿度100%
気圧1015hPa
METARSBGR 230500Z 10002KT 9999 SCT008 BKN100 21/21 Q1015
過去の天気等 Google飛行場航空写真 Wunderground天気予報

過去48時間のMETAR

飛行場予報(TAF)
発表時間: 1/22 23:03 BRST (1/23 01:03 UTC)
予報対象時間: 23日4時 BRST ~ 24日10時 BRST
風向・風速東北東 2m/s
視程10km以上
なし
23日6時 BRST から 確率 30% で
全天の4割程度の雲 雲底高度 300m
23日11時 BRST ~ 23日13時 BRST に徐々に
風向・風速北西 3m/s
全天の4割程度の雲 雲底高度 1,220m
23日16時 BRST ~ 23日24時 BRST に一時的に
風向・風速南東 5m/s
視程7,000m
天気現象雷雨
全天の4割程度の雲 雲底高度 1,070m
少しの積乱雲 雲底高度 1,220m
24日0時 BRST ~ 24日2時 BRST に徐々に
風向・風速東 3m/s
視程10km以上
なし
TAF SBGR 230103Z 2306/2412 07003KT CAVOK TN20/2308Z TX33/2317Z
PROB30 2308/2310 SCT010
BECMG 2313/2315 32005KT SCT040
TEMPO 2318/2402 14010KT 7000 TSRA SCT035 FEW040CB
BECMG 2402/2404 08005KT CAVOK RMK PGN